createdAt,value
2022-09-06T00:00:18.701Z,24.30
2022-09-06T00:02:46.376Z,24.30
2022-09-06T00:05:13.974Z,24.30
2022-09-06T00:07:41.489Z,24.30
2022-09-06T00:10:09.095Z,24.20
2022-09-06T00:12:36.878Z,24.20
2022-09-06T00:15:05.382Z,24.20
2022-09-06T00:17:32.898Z,24.20
2022-09-06T00:19:59.785Z,24.20
2022-09-06T00:22:26.684Z,24.20
2022-09-06T00:24:53.592Z,24.20
2022-09-06T00:27:20.503Z,24.20
2022-09-06T00:29:47.406Z,24.20
2022-09-06T00:32:14.350Z,24.20
2022-09-06T00:34:42.179Z,24.10
2022-09-06T00:37:09.076Z,24.20
2022-09-06T00:39:36.082Z,24.10
2022-09-06T00:42:07.442Z,24.10
2022-09-06T00:44:34.369Z,24.10
2022-09-06T00:47:01.569Z,24.10
2022-09-06T00:49:39.459Z,24.10
2022-09-06T00:52:12.974Z,24.10
2022-09-06T00:54:40.551Z,24.10
2022-09-06T00:57:08.044Z,24.00
2022-09-06T00:59:37.394Z,24.00
2022-09-06T01:02:05.624Z,24.00
2022-09-06T01:04:33.184Z,24.00
2022-09-06T01:07:21.405Z,24.00
2022-09-06T01:10:03.318Z,24.00
2022-09-06T01:12:51.628Z,24.00
2022-09-06T01:15:49.366Z,24.00
2022-09-06T01:18:31.540Z,24.00
2022-09-06T01:21:01.245Z,24.00
2022-09-06T01:23:36.831Z,23.90
2022-09-06T01:26:50.000Z,24.00
2022-09-06T01:29:43.738Z,24.00
2022-09-06T01:32:29.459Z,23.90
2022-09-06T01:35:06.920Z,23.90
2022-09-06T01:37:34.259Z,23.90
2022-09-06T01:40:01.271Z,23.90
2022-09-06T01:42:31.425Z,23.80
2022-09-06T01:45:19.928Z,23.90
2022-09-06T01:48:09.376Z,23.90
2022-09-06T01:51:00.468Z,23.80
2022-09-06T01:53:45.523Z,23.90
2022-09-06T01:56:27.642Z,23.80
2022-09-06T01:59:25.210Z,23.80
2022-09-06T02:02:13.267Z,23.80
2022-09-06T02:04:53.120Z,23.80
2022-09-06T02:07:27.078Z,23.80
2022-09-06T02:10:08.343Z,23.80
2022-09-06T02:12:39.131Z,23.80
2022-09-06T02:15:30.084Z,23.80
2022-09-06T02:18:05.116Z,23.80
2022-09-06T02:20:34.962Z,23.80
2022-09-06T02:23:05.656Z,23.80
2022-09-06T02:25:38.647Z,23.80
2022-09-06T02:28:08.195Z,23.80
2022-09-06T02:30:45.990Z,23.80
2022-09-06T02:33:21.701Z,23.80
2022-09-06T02:35:52.112Z,23.80
2022-09-06T02:38:21.526Z,23.80
2022-09-06T02:40:50.137Z,23.70
2022-09-06T02:43:17.010Z,23.70
2022-09-06T02:45:43.980Z,23.70
2022-09-06T02:48:10.926Z,23.70
2022-09-06T02:50:37.822Z,23.70
2022-09-06T02:53:10.552Z,23.70
2022-09-06T02:55:38.430Z,23.70
2022-09-06T02:58:07.254Z,23.70
2022-09-06T03:00:34.718Z,23.70
2022-09-06T03:03:01.758Z,23.70
2022-09-06T03:05:28.914Z,23.70
2022-09-06T03:07:56.363Z,23.70
2022-09-06T03:10:24.992Z,23.70
2022-09-06T03:12:52.750Z,23.70
2022-09-06T03:15:20.381Z,23.60
2022-09-06T03:17:47.578Z,23.60
2022-09-06T03:20:14.723Z,23.60
2022-09-06T03:22:41.919Z,23.60
2022-09-06T03:25:10.380Z,23.60
2022-09-06T03:27:37.657Z,23.60
2022-09-06T03:30:06.139Z,23.60
2022-09-06T03:32:33.311Z,23.60
2022-09-06T03:35:00.189Z,23.60
2022-09-06T03:37:27.426Z,23.60
2022-09-06T03:39:54.375Z,23.60
2022-09-06T03:42:21.906Z,23.60
2022-09-06T03:44:48.848Z,23.60
2022-09-06T03:47:19.419Z,23.60
2022-09-06T03:49:47.128Z,23.60
2022-09-06T03:52:14.407Z,23.60
2022-09-06T03:54:41.390Z,23.60
2022-09-06T03:57:08.696Z,23.60
2022-09-06T03:59:36.329Z,23.60
2022-09-06T04:02:03.934Z,23.60
2022-09-06T04:04:30.863Z,23.60
2022-09-06T04:06:57.958Z,23.60
2022-09-06T04:09:25.065Z,23.60
2022-09-06T04:11:52.042Z,23.60
2022-09-06T04:14:18.996Z,23.60
2022-09-06T04:16:45.998Z,23.60
2022-09-06T04:19:12.976Z,23.60
2022-09-06T04:21:39.901Z,23.60
2022-09-06T04:24:07.051Z,23.60
2022-09-06T04:26:34.476Z,23.60
2022-09-06T04:29:01.423Z,23.60
2022-09-06T04:31:28.383Z,23.60
2022-09-06T04:33:55.393Z,23.60
2022-09-06T04:36:22.296Z,23.60
2022-09-06T04:38:49.418Z,23.60
2022-09-06T04:41:18.715Z,23.60
2022-09-06T04:43:45.842Z,23.60
2022-09-06T04:46:24.984Z,23.60
2022-09-06T04:48:53.375Z,23.60
2022-09-06T04:51:20.444Z,23.60
2022-09-06T04:53:49.548Z,23.60
2022-09-06T04:56:23.547Z,23.60
2022-09-06T04:58:51.442Z,23.60
2022-09-06T05:01:19.147Z,23.60
2022-09-06T05:03:46.582Z,23.60
2022-09-06T05:06:23.557Z,23.60
2022-09-06T05:08:50.803Z,23.60
2022-09-06T05:11:18.133Z,23.60
2022-09-06T05:13:47.023Z,23.50
2022-09-06T05:16:14.212Z,23.60
2022-09-06T05:18:41.322Z,23.70
2022-09-06T05:21:08.276Z,23.80
2022-09-06T05:23:35.366Z,23.80
2022-09-06T05:26:03.371Z,23.80
2022-09-06T05:28:30.332Z,23.90
2022-09-06T05:31:23.630Z,23.80
2022-09-06T05:33:52.523Z,23.80
2022-09-06T05:36:19.672Z,23.70
2022-09-06T05:38:46.662Z,23.70
2022-09-06T05:41:13.540Z,23.70
2022-09-06T05:43:40.486Z,23.80
2022-09-06T05:46:07.472Z,23.70
2022-09-06T05:48:37.013Z,23.70
2022-09-06T05:51:13.045Z,23.70
2022-09-06T05:53:42.318Z,23.80
2022-09-06T05:56:10.729Z,23.80
2022-09-06T05:58:38.958Z,23.80
2022-09-06T06:01:26.923Z,23.80
2022-09-06T06:04:05.042Z,23.80
2022-09-06T06:06:33.806Z,23.80
2022-09-06T06:09:01.130Z,23.80
2022-09-06T06:11:29.605Z,23.80
2022-09-06T06:13:56.613Z,23.80
2022-09-06T06:16:23.638Z,23.80
2022-09-06T06:18:52.587Z,23.80
2022-09-06T06:21:28.957Z,23.80
2022-09-06T06:24:03.837Z,23.80
2022-09-06T06:26:33.384Z,23.90
2022-09-06T06:29:02.447Z,23.90
2022-09-06T06:31:31.928Z,23.80
2022-09-06T06:33:59.705Z,23.90
2022-09-06T06:36:30.735Z,23.90
2022-09-06T06:38:58.865Z,23.90
2022-09-06T06:41:30.954Z,23.90
2022-09-06T06:44:02.680Z,24.00
2022-09-06T06:46:35.839Z,24.00
2022-09-06T06:49:03.260Z,23.90
2022-09-06T06:51:32.307Z,24.00
2022-09-06T06:54:00.170Z,24.00
2022-09-06T06:56:32.451Z,24.00
2022-09-06T06:59:02.672Z,24.10
2022-09-06T07:01:32.121Z,24.10
2022-09-06T07:03:59.495Z,24.10
2022-09-06T07:09:18.818Z,24.10
2022-09-06T07:11:48.240Z,24.10
2022-09-06T07:14:18.407Z,24.10
2022-09-06T07:16:45.675Z,24.10
2022-09-06T07:22:04.292Z,24.20
2022-09-06T07:24:32.814Z,24.20
2022-09-06T07:29:46.883Z,24.20
2022-09-06T07:32:13.858Z,24.20
2022-09-06T07:34:41.833Z,24.20
2022-09-06T07:37:08.707Z,24.20
2022-09-06T07:39:37.132Z,24.20
2022-09-06T07:42:04.703Z,24.20
2022-09-06T07:44:31.755Z,24.30
2022-09-06T07:55:19.712Z,24.20
2022-09-06T07:57:46.633Z,24.30
2022-09-06T08:00:13.743Z,24.30
2022-09-06T08:02:41.051Z,24.30
2022-09-06T08:10:42.394Z,24.40
2022-09-06T08:13:09.435Z,24.40
2022-09-06T08:15:36.372Z,24.40
2022-09-06T08:18:03.307Z,24.50
2022-09-06T08:20:30.339Z,24.50
2022-09-06T08:22:57.267Z,24.60
2022-09-06T08:25:24.216Z,24.60
2022-09-06T08:27:51.165Z,24.70
2022-09-06T08:30:18.112Z,24.70
2022-09-06T08:32:45.400Z,24.70
2022-09-06T08:35:12.262Z,24.70
2022-09-06T08:37:39.272Z,24.80
2022-09-06T08:40:06.739Z,24.90
2022-09-06T08:42:33.861Z,24.90
2022-09-06T08:45:04.052Z,24.90
2022-09-06T08:47:31.091Z,25.00
2022-09-06T08:50:05.448Z,25.00
2022-09-06T08:53:06.570Z,25.10
2022-09-06T08:55:56.131Z,25.10
2022-09-06T08:58:31.971Z,25.10
2022-09-06T09:01:06.484Z,25.20
2022-09-06T09:03:39.151Z,25.20
2022-09-06T09:06:09.398Z,25.20
2022-09-06T09:08:54.631Z,25.20
2022-09-06T09:11:25.465Z,25.20
2022-09-06T09:14:13.104Z,25.20
2022-09-06T09:16:40.255Z,25.30
2022-09-06T09:19:09.352Z,25.20
2022-09-06T09:21:40.522Z,25.30
2022-09-06T09:24:12.820Z,25.30
2022-09-06T09:27:08.712Z,25.30
2022-09-06T09:32:45.250Z,25.40
2022-09-06T09:35:28.924Z,25.40
2022-09-06T09:38:07.728Z,25.40
2022-09-06T09:41:03.374Z,25.40
2022-09-06T09:43:32.421Z,25.40
2022-09-06T09:46:23.525Z,25.40
2022-09-06T09:49:02.351Z,25.40
2022-09-06T09:51:31.050Z,25.40
2022-09-06T09:54:03.955Z,25.40
2022-09-06T09:56:45.490Z,25.40
2022-09-06T09:59:29.020Z,25.40
2022-09-06T10:02:01.126Z,25.40
2022-09-06T10:04:45.705Z,25.40
2022-09-06T10:07:22.848Z,25.50
2022-09-06T10:10:04.885Z,25.50
2022-09-06T10:12:33.234Z,25.40
2022-09-06T10:15:02.545Z,25.40
2022-09-06T10:17:43.639Z,25.40
2022-09-06T10:20:12.724Z,25.50
2022-09-06T10:23:04.840Z,25.50
2022-09-06T10:25:34.752Z,25.50
2022-09-06T10:28:29.894Z,25.50
2022-09-06T10:31:18.161Z,25.50
2022-09-06T10:34:09.964Z,25.50
2022-09-06T10:36:51.341Z,25.60
2022-09-06T10:39:40.393Z,25.50
2022-09-06T10:42:18.299Z,25.50
2022-09-06T10:45:10.888Z,25.60
2022-09-06T10:48:04.884Z,25.50
2022-09-06T10:50:52.089Z,25.50
2022-09-06T10:53:22.052Z,25.60
2022-09-06T10:56:01.263Z,25.50
2022-09-06T11:01:50.592Z,25.50
2022-09-06T11:04:27.968Z,25.60
2022-09-06T11:07:01.046Z,25.60
2022-09-06T11:09:50.447Z,25.60
2022-09-06T11:12:29.599Z,25.60
2022-09-06T11:14:56.496Z,25.50
2022-09-06T11:17:31.975Z,25.50
2022-09-06T11:20:19.711Z,25.60
2022-09-06T11:23:07.469Z,25.60
2022-09-06T11:26:26.772Z,25.50
2022-09-06T11:28:57.408Z,25.60
2022-09-06T11:34:27.081Z,25.50
2022-09-06T11:37:02.284Z,25.50
2022-09-06T11:42:41.036Z,25.50
2022-09-06T11:45:07.963Z,25.50
2022-09-06T11:47:38.863Z,25.50
2022-09-06T11:50:21.155Z,25.50
2022-09-06T11:52:50.896Z,25.60
2022-09-06T11:55:22.726Z,25.50
2022-09-06T11:57:56.349Z,25.50
2022-09-06T12:00:24.698Z,25.50
2022-09-06T12:02:52.910Z,25.50
2022-09-06T12:05:30.283Z,25.50
2022-09-06T12:08:26.770Z,25.60
2022-09-06T12:11:30.089Z,25.50
2022-09-06T12:14:05.939Z,25.50
2022-09-06T12:16:57.599Z,25.50
2022-09-06T12:19:50.461Z,25.50
2022-09-06T12:22:32.103Z,25.50
2022-09-06T12:25:34.108Z,25.50
2022-09-06T12:28:06.587Z,25.50
2022-09-06T12:30:42.935Z,25.40
2022-09-06T12:33:31.814Z,25.40
2022-09-06T12:36:22.597Z,25.50
2022-09-06T12:39:15.683Z,25.50
2022-09-06T12:41:47.504Z,25.50
2022-09-06T12:44:17.254Z,25.40
2022-09-06T12:46:50.000Z,25.40
2022-09-06T12:49:20.620Z,25.40
2022-09-06T12:51:48.304Z,25.40
2022-09-06T12:54:26.576Z,25.40
2022-09-06T12:57:11.228Z,25.40
2022-09-06T12:59:38.164Z,25.40
2022-09-06T13:02:10.820Z,25.40
2022-09-06T13:04:40.921Z,25.40
2022-09-06T13:07:12.976Z,25.40
2022-09-06T13:09:43.248Z,25.40
2022-09-06T13:12:17.705Z,25.40
2022-09-06T13:14:44.620Z,25.40
2022-09-06T13:17:31.607Z,25.40
2022-09-06T13:19:58.486Z,25.50
2022-09-06T13:23:09.287Z,25.40
2022-09-06T13:25:51.601Z,25.40
2022-09-06T13:28:33.479Z,25.40
2022-09-06T13:31:09.602Z,25.40
2022-09-06T13:33:37.821Z,25.40
2022-09-06T13:36:13.984Z,25.40
2022-09-06T13:38:42.827Z,25.40
2022-09-06T13:41:25.043Z,25.40
2022-09-06T13:44:00.767Z,25.40
2022-09-06T13:46:27.768Z,25.40
2022-09-06T13:48:56.835Z,25.40
2022-09-06T13:51:24.249Z,25.40
2022-09-06T13:53:51.313Z,25.40
2022-09-06T13:56:18.322Z,25.40
2022-09-06T13:58:45.234Z,25.40
2022-09-06T14:01:14.231Z,25.40
2022-09-06T14:03:42.438Z,25.40
2022-09-06T14:06:10.064Z,25.40
2022-09-06T14:08:56.189Z,25.40
2022-09-06T14:11:25.409Z,25.40
2022-09-06T14:13:52.414Z,25.40
2022-09-06T14:16:19.549Z,25.40
2022-09-06T14:18:46.691Z,25.40
2022-09-06T14:21:13.837Z,25.40
2022-09-06T14:23:40.931Z,25.40
2022-09-06T14:26:07.835Z,25.40
2022-09-06T14:28:34.847Z,25.40
2022-09-06T14:31:32.901Z,25.40
2022-09-06T14:34:01.667Z,25.40
2022-09-06T14:36:30.254Z,25.40
2022-09-06T14:38:58.684Z,25.30
2022-09-06T14:41:26.410Z,25.40
2022-09-06T14:43:55.591Z,25.40
2022-09-06T14:46:23.763Z,25.40
2022-09-06T14:49:00.963Z,25.40
2022-09-06T14:51:29.103Z,25.40
2022-09-06T14:54:09.176Z,25.40
2022-09-06T14:56:37.088Z,25.40
2022-09-06T14:59:04.195Z,25.40
2022-09-06T15:01:37.736Z,25.40
2022-09-06T15:04:09.402Z,25.40
2022-09-06T15:06:39.911Z,25.30
2022-09-06T15:09:08.266Z,25.40
2022-09-06T15:11:42.274Z,25.40
2022-09-06T15:14:20.537Z,25.40
2022-09-06T15:16:52.170Z,25.40
2022-09-06T15:19:27.059Z,25.40
2022-09-06T15:21:55.721Z,25.40
2022-09-06T15:24:22.802Z,25.40
2022-09-06T15:26:50.306Z,25.40
2022-09-06T15:29:17.327Z,25.40
2022-09-06T15:31:50.282Z,25.40
2022-09-06T15:34:19.694Z,25.40
2022-09-06T15:36:46.881Z,25.50
2022-09-06T15:39:14.388Z,25.40
2022-09-06T15:41:41.636Z,25.40
2022-09-06T15:44:11.820Z,25.40
2022-09-06T15:46:46.135Z,25.50
2022-09-06T15:49:28.364Z,25.50
2022-09-06T15:51:57.541Z,25.40
2022-09-06T15:54:44.450Z,25.40
2022-09-06T15:57:11.834Z,25.40
2022-09-06T15:59:39.823Z,25.40
2022-09-06T16:02:07.817Z,25.40
2022-09-06T16:04:34.750Z,25.40
2022-09-06T16:07:01.746Z,25.40
2022-09-06T16:09:29.380Z,25.40
2022-09-06T16:11:56.469Z,25.40
2022-09-06T16:14:23.524Z,25.40
2022-09-06T16:16:53.843Z,25.40
2022-09-06T16:19:20.978Z,25.40
2022-09-06T16:21:47.877Z,25.40
2022-09-06T16:24:15.283Z,25.40
2022-09-06T16:26:44.584Z,25.40
2022-09-06T16:29:13.911Z,25.40
2022-09-06T16:31:41.246Z,25.40
2022-09-06T16:34:09.858Z,25.40
2022-09-06T16:36:36.863Z,25.40
2022-09-06T16:39:05.110Z,25.40
2022-09-06T16:41:42.919Z,25.40
2022-09-06T16:44:16.794Z,25.40
2022-09-06T16:46:46.232Z,25.40
2022-09-06T16:49:14.213Z,25.40
2022-09-06T16:51:42.734Z,25.40
2022-09-06T16:54:09.702Z,25.40
2022-09-06T16:56:36.980Z,25.40
2022-09-06T16:59:06.537Z,25.40
2022-09-06T17:01:34.470Z,25.40
2022-09-06T17:04:02.301Z,25.40
2022-09-06T17:06:30.119Z,25.40
2022-09-06T17:09:00.571Z,25.40
2022-09-06T17:11:28.796Z,25.40
2022-09-06T17:13:57.438Z,25.40
2022-09-06T17:16:44.713Z,25.40
2022-09-06T17:19:12.039Z,25.40
2022-09-06T17:21:40.115Z,25.40
2022-09-06T17:24:08.473Z,25.40
2022-09-06T17:26:36.778Z,25.40
2022-09-06T17:29:04.164Z,25.40
2022-09-06T17:31:31.894Z,25.40
2022-09-06T17:33:59.850Z,25.40
2022-09-06T17:36:32.222Z,25.40
2022-09-06T17:39:07.311Z,25.40
2022-09-06T17:41:39.589Z,25.40
2022-09-06T17:44:13.196Z,25.40
2022-09-06T17:46:57.009Z,25.40
2022-09-06T17:49:24.866Z,25.40
2022-09-06T17:51:52.158Z,25.40
2022-09-06T17:54:19.606Z,25.40
2022-09-06T17:56:46.460Z,25.40
2022-09-06T17:59:15.495Z,25.40
2022-09-06T18:01:44.518Z,25.40
2022-09-06T18:04:13.089Z,25.50
2022-09-06T18:06:53.828Z,25.40
2022-09-06T18:09:21.587Z,25.50
2022-09-06T18:11:48.661Z,25.40
2022-09-06T18:14:18.467Z,25.50
2022-09-06T18:16:47.184Z,25.50
2022-09-06T18:19:15.384Z,25.50
2022-09-06T18:21:42.869Z,25.50
2022-09-06T18:24:10.965Z,25.50
2022-09-06T18:26:38.150Z,25.50
2022-09-06T18:29:11.728Z,25.50
2022-09-06T18:31:39.769Z,25.50
2022-09-06T18:34:08.774Z,25.50
2022-09-06T18:36:36.745Z,25.50
2022-09-06T18:39:05.229Z,25.50
2022-09-06T18:41:52.274Z,25.50
2022-09-06T18:44:19.605Z,25.50
2022-09-06T18:46:46.532Z,25.40
2022-09-06T18:49:15.173Z,25.40
2022-09-06T18:51:42.728Z,25.40
2022-09-06T18:54:10.988Z,25.40
2022-09-06T18:56:38.579Z,25.40
2022-09-06T18:59:06.110Z,25.40
2022-09-06T19:01:35.229Z,25.50
2022-09-06T19:04:03.805Z,25.50
2022-09-06T19:06:32.576Z,25.50
2022-09-06T19:09:06.127Z,25.50
2022-09-06T19:11:33.613Z,25.40
2022-09-06T19:14:00.720Z,25.40
2022-09-06T19:16:29.468Z,25.50
2022-09-06T19:19:01.054Z,25.50
2022-09-06T19:21:28.100Z,25.50
2022-09-06T19:23:57.932Z,25.40
2022-09-06T19:26:26.672Z,25.40
2022-09-06T19:28:59.840Z,25.40
2022-09-06T19:31:33.449Z,25.40
2022-09-06T19:34:01.089Z,25.40
2022-09-06T19:36:29.483Z,25.40
2022-09-06T19:39:07.823Z,25.40
2022-09-06T19:41:40.190Z,25.30
2022-09-06T19:44:09.110Z,25.30
2022-09-06T19:46:37.371Z,25.30
2022-09-06T19:49:08.167Z,25.30
2022-09-06T19:51:36.381Z,25.30
2022-09-06T19:54:03.645Z,25.30
2022-09-06T19:56:35.505Z,25.20
2022-09-06T19:59:05.160Z,25.30
2022-09-06T20:01:34.488Z,25.30
2022-09-06T20:04:03.483Z,25.30
2022-09-06T20:06:31.375Z,25.30
2022-09-06T20:09:00.021Z,25.30
2022-09-06T20:11:30.898Z,25.30
2022-09-06T20:13:59.295Z,25.30
2022-09-06T20:16:26.805Z,25.30
2022-09-06T20:18:58.984Z,25.30
2022-09-06T20:21:30.092Z,25.40
2022-09-06T20:23:59.576Z,25.30
2022-09-06T20:26:30.457Z,25.30
2022-09-06T20:28:59.841Z,25.30
2022-09-06T20:31:28.344Z,25.30
2022-09-06T20:33:55.662Z,25.30
2022-09-06T20:36:22.639Z,25.30
2022-09-06T20:38:49.889Z,25.20
2022-09-06T20:41:26.733Z,25.30
2022-09-06T20:43:58.476Z,25.30
2022-09-06T20:46:29.293Z,25.20
2022-09-06T20:48:58.148Z,25.30
2022-09-06T20:51:26.001Z,25.30
2022-09-06T20:53:56.833Z,25.20
2022-09-06T20:56:26.546Z,25.30
2022-09-06T20:58:55.815Z,25.30
2022-09-06T21:01:25.942Z,25.30
2022-09-06T21:03:55.745Z,25.30
2022-09-06T21:06:23.995Z,25.30
2022-09-06T21:08:51.548Z,25.20
2022-09-06T21:11:19.682Z,25.20
2022-09-06T21:13:51.416Z,25.20
2022-09-06T21:16:24.876Z,25.20
2022-09-06T21:19:03.605Z,25.10
2022-09-06T21:21:32.213Z,25.10
2022-09-06T21:24:01.372Z,25.10
2022-09-06T21:26:28.817Z,25.00
2022-09-06T21:28:56.020Z,25.00
2022-09-06T21:31:25.392Z,24.90
2022-09-06T21:33:54.998Z,25.00
2022-09-06T21:36:30.244Z,25.00
2022-09-06T21:38:59.610Z,25.00
2022-09-06T21:41:28.119Z,25.00
2022-09-06T21:43:57.424Z,25.00
2022-09-06T21:46:31.743Z,24.90
2022-09-06T21:49:02.430Z,24.90
2022-09-06T21:51:29.408Z,24.90
2022-09-06T21:53:59.587Z,24.80
2022-09-06T21:56:26.598Z,24.80
2022-09-06T21:58:58.516Z,24.80
2022-09-06T22:01:28.634Z,24.80
2022-09-06T22:03:56.099Z,24.70
2022-09-06T22:06:31.430Z,24.70
2022-09-06T22:09:00.251Z,24.70
2022-09-06T22:11:29.564Z,24.70
2022-09-06T22:14:01.113Z,24.60
2022-09-06T22:16:28.729Z,24.60
2022-09-06T22:18:55.844Z,24.60
2022-09-06T22:21:23.157Z,24.60
2022-09-06T22:23:55.588Z,24.60
2022-09-06T22:26:24.088Z,24.60
2022-09-06T22:29:02.731Z,24.50
2022-09-06T22:31:32.079Z,24.50
2022-09-06T22:33:59.648Z,24.40
2022-09-06T22:36:27.167Z,24.40
2022-09-06T22:38:57.549Z,24.40
2022-09-06T22:41:29.995Z,24.40
2022-09-06T22:43:59.520Z,24.40
2022-09-06T22:46:26.794Z,24.30
2022-09-06T22:48:53.738Z,24.30
2022-09-06T22:51:20.818Z,24.30
2022-09-06T22:53:47.895Z,24.20
2022-09-06T22:56:14.856Z,24.20
2022-09-06T22:58:41.889Z,24.20
2022-09-06T23:01:13.671Z,24.20
2022-09-06T23:03:41.858Z,24.20
2022-09-06T23:06:09.175Z,24.20
2022-09-06T23:08:38.068Z,24.10
2022-09-06T23:11:07.670Z,24.10
2022-09-06T23:13:34.802Z,24.10
2022-09-06T23:16:07.248Z,24.00
2022-09-06T23:18:34.479Z,24.10
2022-09-06T23:21:09.957Z,24.00
2022-09-06T23:23:38.337Z,24.10
2022-09-06T23:26:10.608Z,24.00
2022-09-06T23:28:38.756Z,24.00
2022-09-06T23:31:07.775Z,24.00
2022-09-06T23:33:36.283Z,24.00
2022-09-06T23:36:08.771Z,24.00
2022-09-06T23:38:37.179Z,23.90
2022-09-06T23:41:04.890Z,23.90
2022-09-06T23:43:32.212Z,23.90
2022-09-06T23:45:59.148Z,23.90
2022-09-06T23:48:26.326Z,23.90
2022-09-06T23:50:53.477Z,23.80
2022-09-06T23:53:20.439Z,23.80
2022-09-06T23:55:48.710Z,23.80
2022-09-06T23:58:18.583Z,23.80
